Time;durP1;ratioP1;P1;durP2;ratioP2;P2;SDS_P1;SDS_P2;PMS_P1;PMS_P2;Temp;Humidity;BMP_temperature;BMP_pressure;BME280_temperature;BME280_humidity;BME280_pressure;Samples;Min_cycle;Max_cycle;Signal;HPM_P1;HPM_P2
2023/09/11 00:00:47;;;;;;;11.63;7.07;;;15.70;99.90;;;;;;4998927;28;20057;-88
2023/09/11 00:03:13;;;;;;;15.20;7.55;;;15.80;99.90;;;;;;5009622;28;20029;-88
2023/09/11 00:05:39;;;;;;;10.02;6.80;;;15.80;99.90;;;;;;4995301;28;20142;-88
2023/09/11 00:08:05;;;;;;;8.50;6.40;;;15.80;99.90;;;;;;5026838;28;20030;-87
2023/09/11 00:10:32;;;;;;;14.38;7.40;;;15.90;99.90;;;;;;5005811;28;20030;-87
2023/09/11 00:12:59;;;;;;;13.40;7.60;;;16.00;99.90;;;;;;5006715;28;20034;-87
2023/09/11 00:15:25;;;;;;;10.63;6.90;;;16.10;99.90;;;;;;4994568;28;20034;-87
2023/09/11 00:17:51;;;;;;;9.32;7.07;;;16.20;99.90;;;;;;5028590;28;20060;-88
2023/09/11 00:20:16;;;;;;;9.93;7.10;;;16.10;99.90;;;;;;4995539;28;20058;-86
2023/09/11 00:22:42;;;;;;;14.15;6.80;;;16.10;99.90;;;;;;5008372;28;20037;-88
2023/09/11 00:25:08;;;;;;;9.80;7.00;;;16.10;99.90;;;;;;5014857;28;20034;-89
2023/09/11 00:27:34;;;;;;;10.15;6.88;;;16.00;99.90;;;;;;5000332;28;20018;-88
2023/09/11 00:30:00;;;;;;;9.38;7.10;;;15.90;99.90;;;;;;4999387;28;20034;-87
2023/09/11 00:32:26;;;;;;;12.05;7.40;;;15.90;99.90;;;;;;4999942;28;20390;-88
2023/09/11 00:34:51;;;;;;;10.60;6.72;;;15.80;99.90;;;;;;4998779;28;20057;-87
2023/09/11 00:37:17;;;;;;;10.23;6.35;;;15.70;99.90;;;;;;5025060;28;20031;-87
2023/09/11 00:39:42;;;;;;;13.02;7.07;;;15.70;99.90;;;;;;4995727;28;20030;-88
2023/09/11 00:42:08;;;;;;;12.00;7.68;;;15.70;99.90;;;;;;5016481;28;20030;-87
2023/09/11 00:44:34;;;;;;;10.27;6.63;;;15.70;99.90;;;;;;5011595;28;20022;-88
2023/09/11 00:47:00;;;;;;;10.98;7.13;;;15.80;99.90;;;;;;5011977;28;20448;-88
2023/09/11 00:49:26;;;;;;;10.13;7.30;;;15.80;99.90;;;;;;4998583;28;20037;-88
2023/09/11 00:51:52;;;;;;;13.52;8.18;;;15.80;99.90;;;;;;5019232;28;20152;-88
2023/09/11 00:54:21;;;;;;;14.43;7.72;;;15.70;99.90;;;;;;5019292;28;20030;-88
2023/09/11 00:56:47;;;;;;;10.30;7.45;;;15.70;99.90;;;;;;4995484;28;20065;-87
2023/09/11 00:59:14;;;;;;;15.63;8.05;;;15.70;99.90;;;;;;5016895;28;20030;-87
2023/09/11 01:01:45;;;;;;;10.43;7.05;;;15.70;99.90;;;;;;5002668;28;20042;-87
2023/09/11 01:04:12;;;;;;;14.02;8.02;;;15.70;99.90;;;;;;5030280;28;20030;-86
2023/09/11 01:06:41;;;;;;;12.40;7.88;;;15.80;99.90;;;;;;4999084;28;20461;-89
2023/09/11 01:09:08;;;;;;;11.52;7.90;;;15.80;99.90;;;;;;5020706;28;20037;-88
2023/09/11 01:11:34;;;;;;;12.98;8.35;;;15.80;99.90;;;;;;4999106;28;20030;-88
2023/09/11 01:14:00;;;;;;;14.15;7.43;;;15.80;99.90;;;;;;5031385;28;20033;-88
2023/09/11 01:16:43;;;;;;;12.57;7.68;;;15.70;99.90;;;;;;5000041;28;20034;-88
2023/09/11 01:19:37;;;;;;;9.27;7.20;;;15.70;99.90;;;;;;5015563;28;20042;-87
2023/09/11 01:22:42;;;;;;;10.77;7.68;;;15.60;99.90;;;;;;5026744;28;20033;-88
2023/09/11 01:25:34;;;;;;;10.32;8.27;;;15.50;99.90;;;;;;4992702;28;20371;-88
2023/09/11 01:28:23;;;;;;;14.40;8.38;;;15.40;99.90;;;;;;5014732;28;20030;-87
2023/09/11 01:30:50;;;;;;;10.38;8.20;;;15.30;99.90;;;;;;5015116;28;20477;-88
2023/09/11 01:33:16;;;;;;;14.02;8.35;;;15.20;99.90;;;;;;5005723;28;20481;-88
2023/09/11 01:35:41;;;;;;;13.43;8.63;;;15.10;99.90;;;;;;5008257;28;20026;-87
2023/09/11 01:38:08;;;;;;;14.38;8.52;;;15.00;99.90;;;;;;5012596;28;20061;-89
2023/09/11 01:40:37;;;;;;;11.40;8.48;;;15.00;99.90;;;;;;4998966;28;20532;-88
2023/09/11 01:43:07;;;;;;;11.60;8.32;;;14.90;99.90;;;;;;5014590;28;20551;-88
2023/09/11 01:45:35;;;;;;;15.07;9.18;;;14.80;99.90;;;;;;5010307;28;20030;-88
2023/09/11 01:48:02;;;;;;;14.70;8.75;;;14.80;99.90;;;;;;5015621;28;20034;-88
2023/09/11 01:50:30;;;;;;;12.55;9.60;;;14.70;99.90;;;;;;5010490;28;20090;-88
2023/09/11 01:52:56;;;;;;;14.65;9.48;;;14.70;99.90;;;;;;5024814;28;20053;-87
2023/09/11 01:55:22;;;;;;;13.52;10.27;;;14.70;99.90;;;;;;5018283;28;20061;-88
2023/09/11 01:57:48;;;;;;;16.80;10.23;;;14.70;99.90;;;;;;5034320;28;20025;-88
2023/09/11 02:00:14;;;;;;;16.27;9.85;;;14.70;99.90;;;;;;5025145;28;20030;-87
2023/09/11 02:02:41;;;;;;;15.77;9.93;;;14.60;99.90;;;;;;5021667;28;20084;-88
2023/09/11 02:05:09;;;;;;;13.48;10.27;;;14.60;99.90;;;;;;4998585;28;20469;-88
2023/09/11 02:07:35;;;;;;;13.07;10.27;;;14.60;99.90;;;;;;5015774;28;20030;-88
2023/09/11 02:10:01;;;;;;;16.75;9.98;;;14.50;99.90;;;;;;5003749;28;20058;-88
2023/09/11 02:12:27;;;;;;;17.55;10.25;;;14.50;99.90;;;;;;5000048;28;20029;-88
2023/09/11 02:14:53;;;;;;;16.48;10.00;;;14.50;99.90;;;;;;5004551;28;20445;-88
2023/09/11 02:17:18;;;;;;;17.80;10.30;;;14.40;99.90;;;;;;5018831;28;20087;-88
2023/09/11 02:19:44;;;;;;;12.65;9.90;;;14.30;99.90;;;;;;4998348;28;20478;-88
2023/09/11 02:22:10;;;;;;;15.60;10.90;;;14.30;99.90;;;;;;5030603;28;20080;-89
2023/09/11 02:24:36;;;;;;;16.92;11.43;;;14.20;99.90;;;;;;4997534;28;20378;-88
2023/09/11 02:27:02;;;;;;;14.82;11.15;;;14.20;99.90;;;;;;5016222;28;20035;-88
2023/09/11 02:29:27;;;;;;;14.40;11.88;;;14.20;99.90;;;;;;4993111;28;20037;-88
2023/09/11 02:31:53;;;;;;;14.82;10.90;;;14.20;99.90;;;;;;5018365;28;20482;-88
2023/09/11 02:34:19;;;;;;;17.45;11.77;;;14.20;99.90;;;;;;4993385;28;20473;-88
2023/09/11 02:36:44;;;;;;;19.27;12.15;;;14.20;99.90;;;;;;5014404;28;20052;-88
2023/09/11 02:39:10;;;;;;;15.05;11.30;;;14.20;99.90;;;;;;5022666;28;20035;-88
2023/09/11 02:41:36;;;;;;;16.38;10.93;;;14.20;99.90;;;;;;4998672;28;20105;-88
2023/09/11 02:44:01;;;;;;;22.10;12.00;;;14.20;99.90;;;;;;5002884;28;20126;-88
2023/09/11 02:46:27;;;;;;;13.75;11.45;;;14.20;99.90;;;;;;5010672;28;20022;-88
2023/09/11 02:48:53;;;;;;;19.77;12.57;;;14.20;99.90;;;;;;4995171;28;20461;-88
2023/09/11 02:51:19;;;;;;;15.65;12.52;;;14.20;99.90;;;;;;5017771;28;20038;-87
2023/09/11 02:53:44;;;;;;;16.83;12.48;;;14.10;99.90;;;;;;5012439;28;20109;-88
2023/09/11 02:56:10;;;;;;;14.98;12.52;;;14.10;99.90;;;;;;5020387;28;20133;-88
2023/09/11 02:58:36;;;;;;;15.18;12.32;;;14.10;99.90;;;;;;4997152;28;20043;-88
2023/09/11 03:01:03;;;;;;;17.90;12.13;;;14.10;99.90;;;;;;5003866;28;20080;-88
2023/09/11 03:03:29;;;;;;;18.92;12.27;;;14.10;99.90;;;;;;5016651;28;20049;-88
2023/09/11 03:05:56;;;;;;;16.42;11.60;;;14.10;99.90;;;;;;5007202;28;20029;-88
2023/09/11 03:08:22;;;;;;;14.90;11.60;;;14.10;99.90;;;;;;5017326;28;20329;-88
2023/09/11 03:10:48;;;;;;;19.90;12.77;;;14.10;99.90;;;;;;4994123;28;20031;-88
2023/09/11 03:13:14;;;;;;;18.40;13.10;;;14.10;99.90;;;;;;5019138;28;20056;-88
2023/09/11 03:15:42;;;;;;;15.75;12.00;;;14.10;99.90;;;;;;4995677;28;20034;-88
2023/09/11 03:18:10;;;;;;;17.20;13.05;;;14.00;99.90;;;;;;5021223;28;20024;-88
2023/09/11 03:20:36;;;;;;;16.80;12.68;;;14.00;99.90;;;;;;5009586;28;20033;-88
2023/09/11 03:23:01;;;;;;;18.63;12.35;;;14.00;99.90;;;;;;5020515;28;20113;-88
2023/09/11 03:25:35;;;;;;;18.58;12.55;;;13.90;99.90;;;;;;5003455;28;20474;-88
2023/09/11 03:28:01;;;;;;;17.52;12.68;;;13.90;99.90;;;;;;5001318;28;20388;-88
2023/09/11 03:30:28;;;;;;;15.25;11.40;;;13.90;99.90;;;;;;4997036;28;20066;-87
2023/09/11 03:32:54;;;;;;;20.17;14.05;;;13.90;99.90;;;;;;5029578;28;20088;-88
2023/09/11 03:35:20;;;;;;;16.08;11.60;;;13.80;99.90;;;;;;5027103;28;20478;-87
2023/09/11 03:37:46;;;;;;;14.82;11.90;;;13.80;99.90;;;;;;5029487;28;20408;-87
2023/09/11 03:40:13;;;;;;;17.58;11.98;;;13.80;99.90;;;;;;5015801;28;20026;-86
2023/09/11 03:42:40;;;;;;;14.02;12.15;;;13.80;99.90;;;;;;5022551;28;20381;-88
2023/09/11 03:45:10;;;;;;;18.33;12.82;;;13.70;99.90;;;;;;4993332;28;20125;-88
2023/09/11 03:47:36;;;;;;;19.10;13.32;;;13.70;99.90;;;;;;5012708;28;20022;-88
2023/09/11 03:50:04;;;;;;;16.85;11.70;;;13.70;99.90;;;;;;5012933;28;20037;-88
2023/09/11 03:52:29;;;;;;;15.15;11.82;;;13.70;99.90;;;;;;5019246;28;20099;-87
2023/09/11 03:54:56;;;;;;;17.10;12.52;;;13.70;99.90;;;;;;5016919;28;20034;-88
2023/09/11 03:57:21;;;;;;;17.98;12.93;;;13.70;99.90;;;;;;4988560;28;20398;-88
2023/09/11 03:59:47;;;;;;;19.83;13.73;;;13.70;99.90;;;;;;5026473;28;20033;-88
2023/09/11 04:02:13;;;;;;;19.05;13.32;;;13.70;99.90;;;;;;4996896;28;20030;-88
2023/09/11 04:04:39;;;;;;;20.17;12.85;;;13.70;99.90;;;;;;5029855;28;20030;-89
2023/09/11 04:07:04;;;;;;;21.83;12.55;;;13.70;99.90;;;;;;5029216;28;20025;-88
2023/09/11 04:09:30;;;;;;;18.73;12.35;;;13.70;99.90;;;;;;5012070;28;20036;-87
2023/09/11 04:11:57;;;;;;;15.35;12.30;;;13.70;99.90;;;;;;5016983;28;20034;-88
2023/09/11 04:14:22;;;;;;;17.85;12.20;;;13.80;99.90;;;;;;5010761;28;20069;-88
2023/09/11 04:16:48;;;;;;;14.32;11.57;;;13.80;99.90;;;;;;5001124;28;20031;-88
2023/09/11 04:19:14;;;;;;;16.23;11.60;;;13.70;99.90;;;;;;5025632;28;20501;-87
2023/09/11 04:21:40;;;;;;;20.27;12.40;;;13.70;99.90;;;;;;5013261;28;20461;-88
2023/09/11 04:24:12;;;;;;;17.98;12.40;;;13.60;99.90;;;;;;5033168;28;20025;-88
2023/09/11 04:26:40;;;;;;;17.85;12.80;;;13.60;99.90;;;;;;5022826;28;20047;-88
2023/09/11 04:29:07;;;;;;;17.38;13.10;;;13.60;99.90;;;;;;5001358;28;20030;-88
2023/09/11 04:31:33;;;;;;;21.63;15.05;;;13.50;99.90;;;;;;5025401;28;20080;-88
2023/09/11 04:33:59;;;;;;;17.50;12.02;;;13.50;99.90;;;;;;5025415;28;20096;-88
2023/09/11 04:36:25;;;;;;;16.15;12.18;;;13.50;99.90;;;;;;5001469;28;20090;-88
2023/09/11 04:38:50;;;;;;;16.73;11.80;;;13.50;99.90;;;;;;5011572;28;20030;-88
2023/09/11 04:41:16;;;;;;;16.92;11.48;;;13.50;99.90;;;;;;5001594;28;20077;-88
2023/09/11 04:43:42;;;;;;;16.70;11.60;;;13.50;99.90;;;;;;5016011;28;20476;-88
2023/09/11 04:46:08;;;;;;;16.45;11.38;;;13.40;99.90;;;;;;5020665;28;20033;-88
2023/09/11 04:48:34;;;;;;;17.65;12.30;;;13.40;99.90;;;;;;5014776;28;20370;-89
2023/09/11 04:50:59;;;;;;;17.10;12.00;;;13.50;99.90;;;;;;5030001;28;20109;-88
2023/09/11 04:53:25;;;;;;;16.63;11.65;;;13.50;99.90;;;;;;5016863;28;20026;-88
2023/09/11 04:55:51;;;;;;;17.77;12.10;;;13.40;99.90;;;;;;5031864;28;20096;-89
2023/09/11 04:58:17;;;;;;;16.90;10.60;;;13.50;99.90;;;;;;5013240;28;20068;-88
2023/09/11 05:00:43;;;;;;;17.15;11.10;;;13.50;99.90;;;;;;5007548;28;20422;-88
2023/09/11 05:03:08;;;;;;;14.88;10.65;;;13.40;99.90;;;;;;5001804;28;20034;-88
2023/09/11 05:05:40;;;;;;;16.45;11.02;;;13.40;99.90;;;;;;5000797;28;20026;-88
2023/09/11 05:08:07;;;;;;;17.45;11.32;;;13.40;99.90;;;;;;5026850;28;20462;-88
2023/09/11 05:10:33;;;;;;;19.83;11.20;;;13.40;99.90;;;;;;5002931;28;20026;-89
2023/09/11 05:12:58;;;;;;;14.82;11.55;;;13.50;99.90;;;;;;5028150;28;20121;-87
2023/09/11 05:15:24;;;;;;;19.90;12.20;;;13.50;99.90;;;;;;5002344;28;20112;-88
2023/09/11 05:17:51;;;;;;;21.83;13.73;;;13.50;99.90;;;;;;5020645;28;20042;-88
2023/09/11 05:20:17;;;;;;;18.13;12.80;;;13.50;99.90;;;;;;5002242;28;20077;-88
2023/09/11 05:22:42;;;;;;;23.00;13.95;;;13.50;99.90;;;;;;5031629;28;20026;-88
2023/09/11 05:25:08;;;;;;;19.95;14.05;;;13.50;99.90;;;;;;5019794;28;20604;-88
2023/09/11 05:27:34;;;;;;;18.90;13.20;;;13.50;99.90;;;;;;5024428;28;20037;-88
2023/09/11 05:30:00;;;;;;;21.95;13.15;;;13.60;99.90;;;;;;5003825;28;20058;-89
2023/09/11 05:32:25;;;;;;;20.85;13.85;;;13.50;99.90;;;;;;5026400;28;20485;-88
2023/09/11 05:34:54;;;;;;;19.15;13.13;;;13.60;99.90;;;;;;5012607;28;20109;-89
2023/09/11 05:37:19;;;;;;;21.25;13.60;;;13.60;99.90;;;;;;4992736;28;20030;-89
2023/09/11 05:39:46;;;;;;;20.13;14.38;;;13.60;99.90;;;;;;5003056;28;20102;-89
2023/09/11 05:42:12;;;;;;;21.40;14.68;;;13.70;99.90;;;;;;5025424;28;20022;-89
2023/09/11 05:44:37;;;;;;;20.20;14.13;;;13.80;99.90;;;;;;4984912;28;20125;-89
2023/09/11 05:47:04;;;;;;;17.58;13.25;;;13.90;99.90;;;;;;5019902;28;20034;-89
2023/09/11 05:49:29;;;;;;;24.35;14.13;;;13.90;99.90;;;;;;4988471;28;20477;-89
2023/09/11 05:51:57;;;;;;;20.25;14.35;;;13.90;99.90;;;;;;5023174;28;20116;-89
2023/09/11 05:54:23;;;;;;;22.50;13.27;;;14.00;99.90;;;;;;5003097;28;20027;-89
2023/09/11 05:56:49;;;;;;;21.33;13.93;;;14.00;99.90;;;;;;5017925;28;20037;-89
2023/09/11 05:59:18;;;;;;;24.33;14.55;;;14.10;99.90;;;;;;5006102;28;20088;-89
2023/09/11 06:01:46;;;;;;;21.55;14.38;;;14.10;99.90;;;;;;5022526;28;20136;-86
2023/09/11 06:04:26;;;;;;;24.38;14.95;;;14.20;99.90;;;;;;5001297;28;20033;-88
2023/09/11 06:06:52;;;;;;;20.50;14.73;;;14.30;99.90;;;;;;4994516;28;20370;-89
2023/09/11 06:09:18;;;;;;;25.17;13.88;;;14.40;99.90;;;;;;5016331;28;20089;-89
2023/09/11 06:11:45;;;;;;;21.45;13.70;;;14.50;99.90;;;;;;5017926;28;20489;-89
2023/09/11 06:14:11;;;;;;;18.02;13.43;;;14.60;99.90;;;;;;5015589;28;20061;-89
2023/09/11 06:16:37;;;;;;;19.55;12.90;;;14.80;99.90;;;;;;5000104;28;20493;-90
2023/09/11 06:19:03;;;;;;;19.48;12.80;;;14.90;99.90;;;;;;4988682;28;20393;-90
2023/09/11 06:21:29;;;;;;;17.52;13.23;;;15.10;99.90;;;;;;5016400;28;20026;-89
2023/09/11 06:23:54;;;;;;;14.55;12.10;;;15.20;99.90;;;;;;5018462;28;20450;-87
2023/09/11 06:26:20;;;;;;;20.42;12.05;;;15.40;99.90;;;;;;5012705;28;20080;-87
2023/09/11 06:28:46;;;;;;;15.35;12.35;;;15.50;99.90;;;;;;5006073;28;20417;-87
2023/09/11 06:31:12;;;;;;;20.83;12.52;;;15.60;99.90;;;;;;5009775;28;20022;-87
2023/09/11 06:33:38;;;;;;;19.95;12.48;;;15.70;99.90;;;;;;4995506;28;20180;-87
2023/09/11 06:36:04;;;;;;;25.08;12.82;;;15.90;99.90;;;;;;5016025;28;20044;-87
2023/09/11 06:38:29;;;;;;;19.48;13.05;;;16.00;99.90;;;;;;5022622;28;20050;-87
2023/09/11 06:40:55;;;;;;;16.92;13.18;;;16.10;99.90;;;;;;5009428;28;20109;-87
2023/09/11 06:43:21;;;;;;;19.02;13.77;;;16.20;99.90;;;;;;5016393;28;20121;-87
2023/09/11 06:45:53;;;;;;;17.02;12.32;;;16.40;99.90;;;;;;5007818;28;20593;-88
2023/09/11 06:48:19;;;;;;;16.50;12.52;;;16.50;99.90;;;;;;5024382;28;20485;-88
2023/09/11 06:50:45;;;;;;;18.65;12.45;;;16.70;99.90;;;;;;5023750;28;20518;-89
2023/09/11 06:53:11;;;;;;;16.45;12.57;;;16.80;99.90;;;;;;4982563;28;20030;-88
2023/09/11 06:55:44;;;;;;;16.52;12.05;;;16.90;99.90;;;;;;4990956;28;20029;-87
2023/09/11 06:58:10;;;;;;;14.77;11.80;;;17.10;99.90;;;;;;5009951;28;20033;-88
2023/09/11 07:00:36;;;;;;;18.48;11.40;;;17.30;99.90;;;;;;5009635;28;20034;-88
2023/09/11 07:03:02;;;;;;;18.98;11.75;;;17.40;99.90;;;;;;4982661;28;20022;-89
2023/09/11 07:05:28;;;;;;;15.35;11.00;;;17.60;99.90;;;;;;5002481;28;20060;-88
2023/09/11 07:07:54;;;;;;;15.18;10.27;;;17.70;99.90;;;;;;4983820;28;20018;-88
2023/09/11 07:10:21;;;;;;;14.48;11.27;;;17.90;99.90;;;;;;5004855;28;20519;-88
2023/09/11 07:12:47;;;;;;;20.85;11.25;;;18.10;99.90;;;;;;5026554;28;20037;-88
2023/09/11 07:15:13;;;;;;;14.98;10.20;;;18.30;99.90;;;;;;5001690;28;20052;-88
2023/09/11 07:17:39;;;;;;;19.20;9.48;;;18.50;99.90;;;;;;5014916;28;20068;-88
2023/09/11 07:20:06;;;;;;;17.23;9.57;;;18.70;99.90;;;;;;4984780;28;20466;-89
2023/09/11 07:22:32;;;;;;;12.77;9.25;;;18.90;99.90;;;;;;4993999;28;20046;-88
2023/09/11 07:24:58;;;;;;;11.85;8.60;;;19.00;99.90;;;;;;5012759;28;20028;-89
2023/09/11 07:27:33;;;;;;;13.70;8.43;;;19.10;99.90;;;;;;4995699;28;20042;-88
2023/09/11 07:29:59;;;;;;;11.77;8.15;;;19.30;99.90;;;;;;5029668;28;20350;-88
2023/09/11 07:32:25;;;;;;;13.23;7.72;;;19.40;99.90;;;;;;4984875;28;20026;-89
2023/09/11 07:34:51;;;;;;;14.52;8.68;;;19.60;99.90;;;;;;4986252;28;20034;-88
2023/09/11 07:37:17;;;;;;;11.45;8.63;;;19.70;99.90;;;;;;4992961;28;20033;-89
2023/09/11 07:39:43;;;;;;;12.38;7.90;;;19.80;99.90;;;;;;5014442;28;20040;-88
2023/09/11 07:42:09;;;;;;;11.80;7.43;;;20.00;99.90;;;;;;5012431;28;20026;-89
2023/09/11 07:44:35;;;;;;;14.50;8.05;;;20.10;99.90;;;;;;4988686;28;20363;-89
2023/09/11 07:47:00;;;;;;;11.60;7.97;;;20.20;99.90;;;;;;4996536;28;20034;-88
2023/09/11 07:49:26;;;;;;;15.70;8.20;;;20.30;99.90;;;;;;5011925;28;20026;-90
2023/09/11 07:51:52;;;;;;;14.95;7.32;;;20.50;99.90;;;;;;5003525;28;20050;-90
2023/09/11 07:54:18;;;;;;;9.25;7.57;;;20.60;99.90;;;;;;4994394;28;20854;-88
2023/09/11 07:56:44;;;;;;;10.57;7.68;;;20.70;99.90;;;;;;4991199;28;20045;-89
2023/09/11 07:59:09;;;;;;;12.48;7.68;;;20.80;99.90;;;;;;5028214;28;20117;-89
2023/09/11 08:01:37;;;;;;;17.35;7.97;;;20.90;99.90;;;;;;5008153;28;20425;-89
2023/09/11 08:04:04;;;;;;;13.50;8.10;;;21.00;99.90;;;;;;5016615;28;20044;-89
2023/09/11 08:06:30;;;;;;;13.32;8.00;;;21.20;99.90;;;;;;5009051;28;20022;-88
2023/09/11 08:08:58;;;;;;;12.57;8.00;;;21.40;99.90;;;;;;4991310;28;20026;-89
2023/09/11 08:11:27;;;;;;;16.15;9.35;;;21.60;99.90;;;;;;5015819;28;20029;-88
2023/09/11 08:13:53;;;;;;;13.95;8.15;;;21.70;99.90;;;;;;4992442;28;20040;-90
2023/09/11 08:16:19;;;;;;;11.63;7.78;;;21.70;99.90;;;;;;5016935;28;20112;-89
2023/09/11 08:18:45;;;;;;;14.00;8.30;;;21.80;99.90;;;;;;5015773;28;20037;-89
2023/09/11 08:21:11;;;;;;;14.43;7.78;;;21.80;99.90;;;;;;5000645;28;20023;-90
2023/09/11 08:23:37;;;;;;;14.95;8.60;;;21.90;99.90;;;;;;4997602;28;20113;-89
2023/09/11 08:26:02;;;;;;;11.90;7.80;;;21.90;99.90;;;;;;5001519;28;20065;-89
2023/09/11 08:28:29;;;;;;;15.57;8.48;;;21.90;99.90;;;;;;5005472;28;20027;-89
2023/09/11 08:30:54;;;;;;;11.10;8.00;;;22.10;99.90;;;;;;5013317;28;20045;-89
2023/09/11 08:33:26;;;;;;;13.05;7.57;;;22.10;99.90;;;;;;4998058;28;20026;-89
2023/09/11 08:35:52;;;;;;;10.85;7.57;;;22.20;99.90;;;;;;5013883;28;20029;-89
2023/09/11 08:38:18;;;;;;;15.95;7.28;;;22.30;99.90;;;;;;5000757;28;20110;-89
2023/09/11 08:40:45;;;;;;;11.07;8.02;;;22.40;99.90;;;;;;5029353;28;20029;-89
2023/09/11 08:43:11;;;;;;;16.35;8.10;;;22.50;99.90;;;;;;4999607;28;20501;-89
2023/09/11 08:45:38;;;;;;;13.50;7.93;;;23.00;99.90;;;;;;5025213;28;20054;-90
2023/09/11 08:48:13;;;;;;;11.32;6.50;;;24.80;99.90;;;;;;5012314;28;20022;-90
2023/09/11 08:51:04;;;;;;;12.98;6.22;;;27.20;99.90;;;;;;5016413;28;20837;-89
2023/09/11 08:53:32;;;;;;;13.48;7.03;;;29.40;99.90;;;;;;5004849;28;20064;-89
2023/09/11 08:55:58;;;;;;;10.25;5.90;;;31.00;99.90;;;;;;5023548;28;20751;-90
2023/09/11 08:58:25;;;;;;;9.05;5.50;;;32.10;99.90;;;;;;5012768;28;20042;-90
2023/09/11 09:00:51;;;;;;;15.13;6.82;;;32.60;98.20;;;;;;5007260;28;20046;-91
2023/09/11 09:03:19;;;;;;;16.02;6.20;;;32.90;96.60;;;;;;5015993;28;20026;-90
2023/09/11 09:05:46;;;;;;;12.10;5.68;;;33.00;94.80;;;;;;5024295;28;20030;-91
2023/09/11 09:08:15;;;;;;;9.60;5.95;;;33.40;93.60;;;;;;4997525;28;20378;-90
2023/09/11 09:10:42;;;;;;;8.23;5.72;;;34.30;91.80;;;;;;5015475;28;20056;-91
2023/09/11 09:13:10;;;;;;;11.35;5.53;;;34.10;91.60;;;;;;5007141;28;20030;-89
2023/09/11 09:15:40;;;;;;;8.38;5.70;;;34.00;91.10;;;;;;5001408;28;20126;-91
2023/09/11 09:18:07;;;;;;;9.13;6.13;;;33.50;90.20;;;;;;5001588;28;20041;-90
2023/09/11 09:20:33;;;;;;;10.52;5.95;;;32.80;90.50;;;;;;5015105;28;20030;-90
2023/09/11 09:23:00;;;;;;;13.25;6.30;;;32.30;90.70;;;;;;4997066;28;20038;-90
2023/09/11 09:25:28;;;;;;;12.50;5.43;;;31.70;91.70;;;;;;4999527;28;20085;-91
2023/09/11 09:27:55;;;;;;;12.05;6.13;;;31.50;92.50;;;;;;5003269;28;20367;-90
2023/09/11 09:30:26;;;;;;;13.98;6.38;;;31.20;92.50;;;;;;5001457;28;20115;-90
2023/09/11 09:32:53;;;;;;;16.27;6.28;;;30.50;92.50;;;;;;5027432;28;20355;-89
2023/09/11 09:35:21;;;;;;;8.82;5.50;;;29.90;92.80;;;;;;5022906;28;20030;-90
2023/09/11 09:37:51;;;;;;;11.82;6.53;;;29.50;93.50;;;;;;5014276;28;20157;-90
2023/09/11 09:40:32;;;;;;;13.13;6.70;;;29.00;94.20;;;;;;5014138;28;20032;-90
2023/09/11 09:42:59;;;;;;;11.82;6.53;;;28.70;95.20;;;;;;4995577;28;20461;-91
2023/09/11 09:45:35;;;;;;;13.68;6.75;;;28.10;95.70;;;;;;5009536;28;20026;-90
2023/09/11 09:48:12;;;;;;;13.57;6.68;;;28.30;96.60;;;;;;4998426;28;20036;-90
2023/09/11 09:51:01;;;;;;;9.68;6.28;;;28.60;95.50;;;;;;4989286;28;20026;-89
2023/09/11 09:53:42;;;;;;;11.95;6.10;;;29.10;94.20;;;;;;4998725;28;20168;-89
2023/09/11 09:56:10;;;;;;;;;;;29.20;93.30;;;;;;5018132;28;20068;-89
2023/09/11 09:58:41;;;;;;;15.50;6.40;;;29.50;93.70;;;;;;5026004;28;20314;-91
2023/09/11 10:01:14;;;;;;;;;;;29.60;92.30;;;;;;4996451;28;20116;-90
2023/09/11 10:03:50;;;;;;;17.17;6.03;;;29.80;90.90;;;;;;5025780;28;19913;-91
2023/09/11 10:06:18;;;;;;;14.63;5.65;;;29.60;91.40;;;;;;5020265;28;20026;-91
2023/09/11 10:08:45;;;;;;;14.13;6.00;;;29.80;91.50;;;;;;5009568;28;20502;-90
2023/09/11 10:11:28;;;;;;;15.57;5.72;;;29.70;91.30;;;;;;5004001;28;20042;-90
2023/09/11 10:13:58;;;;;;;13.35;6.70;;;29.80;91.80;;;;;;4999291;28;20031;-89
2023/09/11 10:16:26;;;;;;;23.33;6.70;;;30.20;91.60;;;;;;4997990;28;20032;-90
2023/09/11 10:18:55;;;;;;;21.52;6.60;;;30.40;91.00;;;;;;5030567;28;20029;-90
2023/09/11 10:21:21;;;;;;;20.27;6.95;;;30.60;90.40;;;;;;5029633;28;20381;-91
2023/09/11 10:23:48;;;;;;;13.43;5.90;;;30.90;90.30;;;;;;5013899;28;20033;-90
2023/09/11 10:26:20;;;;;;;18.75;6.65;;;30.90;90.30;;;;;;5012683;28;20362;-90
2023/09/11 10:28:49;;;;;;;11.25;6.07;;;30.90;90.20;;;;;;5013859;28;20410;-91
2023/09/11 10:31:23;;;;;;;13.38;5.50;;;30.60;90.30;;;;;;5013504;28;20844;-91
2023/09/11 10:33:57;;;;;;;11.77;5.38;;;30.90;88.60;;;;;;5026927;28;20057;-91
2023/09/11 10:36:27;;;;;;;19.77;6.15;;;30.90;88.90;;;;;;5018861;28;20027;-91
2023/09/11 10:38:56;;;;;;;24.38;6.30;;;31.20;86.10;;;;;;5013487;28;20051;-91
2023/09/11 10:41:23;;;;;;;14.40;5.63;;;31.40;88.10;;;;;;5007736;28;20109;-91
2023/09/11 10:43:50;;;;;;;21.77;6.55;;;31.70;87.50;;;;;;5012121;28;20572;-90
2023/09/11 10:46:22;;;;;;;22.15;6.47;;;32.00;87.70;;;;;;5017174;28;20055;-92
2023/09/11 10:48:50;;;;;;;17.52;6.15;;;32.00;85.20;;;;;;4994408;28;20030;-91
2023/09/11 10:51:16;;;;;;;21.77;6.05;;;31.90;84.30;;;;;;5008796;28;20116;-91
2023/09/11 10:53:43;;;;;;;15.30;6.13;;;31.90;85.40;;;;;;5030660;28;20061;-91
2023/09/11 10:56:10;;;;;;;15.57;5.65;;;31.40;86.00;;;;;;4998724;28;20470;-90
2023/09/11 10:58:36;;;;;;;15.05;5.70;;;31.40;87.70;;;;;;5017786;28;20026;-90
2023/09/11 11:01:05;;;;;;;23.15;6.93;;;31.50;85.80;;;;;;4988268;28;20054;-90
2023/09/11 11:03:32;;;;;;;22.98;6.15;;;32.00;84.90;;;;;;5027338;28;20053;-91
2023/09/11 11:05:59;;;;;;;19.73;5.75;;;31.90;85.10;;;;;;4995241;28;20029;-91
2023/09/11 11:08:25;;;;;;;19.40;6.00;;;31.30;87.90;;;;;;5001747;28;20065;-89
2023/09/11 11:10:55;;;;;;;13.95;6.00;;;30.90;87.10;;;;;;5015579;28;20038;-89
2023/09/11 11:13:21;;;;;;;23.27;6.50;;;30.10;86.90;;;;;;4986606;28;20026;-91
2023/09/11 11:15:47;;;;;;;25.05;5.85;;;30.20;86.90;;;;;;5021944;28;20034;-90
2023/09/11 11:18:26;;;;;;;22.75;6.63;;;30.30;83.50;;;;;;5014170;28;20092;-91
2023/09/11 11:21:04;;;;;;;27.80;5.60;;;31.20;82.00;;;;;;5017555;28;20030;-91
2023/09/11 11:23:33;;;;;;;24.80;6.07;;;32.10;78.30;;;;;;5026318;28;20071;-91
2023/09/11 11:26:04;;;;;;;26.42;6.93;;;32.60;81.70;;;;;;5013656;28;20026;-90
2023/09/11 11:28:39;;;;;;;30.27;8.23;;;32.10;80.50;;;;;;5004198;28;20022;-90
2023/09/11 11:31:07;;;;;;;17.58;5.43;;;32.30;81.60;;;;;;5004110;28;20133;-90
2023/09/11 11:33:35;;;;;;;20.92;5.55;;;32.60;81.10;;;;;;5004128;28;20026;-91
2023/09/11 11:36:02;;;;;;;20.67;5.75;;;32.50;78.50;;;;;;4999751;28;20148;-90
2023/09/11 11:38:28;;;;;;;24.23;6.93;;;32.90;79.80;;;;;;5005783;28;20069;-90
2023/09/11 11:40:54;;;;;;;24.77;6.68;;;33.70;76.70;;;;;;4994024;28;20026;-90
2023/09/11 11:43:22;;;;;;;26.60;6.00;;;34.00;75.30;;;;;;4989932;28;20473;-90
2023/09/11 11:46:06;;;;;;;21.73;5.38;;;34.30;75.30;;;;;;5020349;28;20033;-91
2023/09/11 11:48:33;;;;;;;25.75;6.70;;;34.00;76.80;;;;;;5025308;28;20493;-89
2023/09/11 11:50:59;;;;;;;17.98;5.72;;;33.40;76.80;;;;;;4992619;28;20030;-90
2023/09/11 11:53:25;;;;;;;25.38;5.25;;;32.70;76.70;;;;;;4993122;28;20073;-91
2023/09/11 11:55:54;;;;;;;16.52;4.97;;;32.70;76.10;;;;;;5000979;28;20035;-90
2023/09/11 11:58:19;;;;;;;16.35;5.45;;;33.40;74.70;;;;;;5014643;28;20045;-89
2023/09/11 12:00:59;;;;;;;25.88;5.78;;;33.60;74.70;;;;;;5012129;28;20037;-89
2023/09/11 12:03:28;;;;;;;26.23;5.85;;;33.90;73.80;;;;;;5004286;28;20093;-90
2023/09/11 12:05:54;;;;;;;23.85;6.40;;;33.70;72.80;;;;;;4989121;28;20040;-89
2023/09/11 12:08:21;;;;;;;19.75;5.28;;;33.60;72.40;;;;;;5007238;28;20026;-90
2023/09/11 12:10:50;;;;;;;18.23;5.60;;;33.70;74.20;;;;;;4996528;28;20033;-89
2023/09/11 12:13:17;;;;;;;23.02;5.55;;;33.50;75.10;;;;;;4994389;28;20373;-90
2023/09/11 12:19:18;;;;;;;19.90;6.22;;;32.30;75.10;;;;;;5000840;28;20076;-90
2023/09/11 12:21:48;;;;;;;17.67;5.25;;;32.20;76.10;;;;;;4997110;28;20027;-90
2023/09/11 12:24:14;;;;;;;24.33;6.22;;;32.20;74.60;;;;;;5001258;28;20037;-90
2023/09/11 12:26:40;;;;;;;22.20;6.50;;;32.40;77.10;;;;;;4998179;28;20034;-90
2023/09/11 12:29:06;;;;;;;23.90;6.68;;;32.30;77.90;;;;;;5003889;28;20496;-91
2023/09/11 12:31:32;;;;;;;17.77;5.70;;;32.00;78.70;;;;;;4999249;28;20027;-89
2023/09/11 12:33:58;;;;;;;32.65;7.13;;;31.60;75.20;;;;;;4996689;28;20038;-89
2023/09/11 12:36:24;;;;;;;25.13;6.88;;;31.20;79.00;;;;;;5026082;28;20037;-89
2023/09/11 12:38:51;;;;;;;20.55;5.95;;;31.20;77.90;;;;;;4997524;28;20030;-90